createdAt,value
2022-10-22T00:03:47.893Z,6.28
2022-10-22T00:08:50.709Z,4.95
2022-10-22T00:13:54.904Z,5.07
2022-10-22T00:18:57.598Z,4.90
2022-10-22T00:24:00.393Z,5.15
2022-10-22T00:29:04.475Z,4.35
2022-10-22T00:34:07.188Z,4.20
2022-10-22T00:39:09.977Z,4.20
2022-10-22T00:44:45.879Z,3.95
2022-10-22T00:49:49.967Z,5.25
2022-10-22T00:54:53.101Z,3.63
2022-10-22T00:59:56.973Z,4.28
2022-10-22T01:05:01.038Z,5.05
2022-10-22T01:10:09.823Z,3.97
2022-10-22T01:15:19.332Z,3.63
2022-10-22T01:20:40.417Z,3.50
2022-10-22T01:25:49.373Z,3.97
2022-10-22T01:30:54.936Z,4.25
2022-10-22T01:35:59.974Z,3.88
2022-10-22T01:41:02.942Z,3.45
2022-10-22T01:46:07.626Z,3.47
2022-10-22T01:51:25.586Z,3.13
2022-10-22T01:56:41.191Z,6.93
2022-10-22T02:01:50.404Z,4.68
2022-10-22T02:06:56.168Z,3.10
2022-10-22T02:12:00.287Z,3.47
2022-10-22T02:17:05.008Z,4.88
2022-10-22T02:22:08.421Z,3.67
2022-10-22T02:27:18.276Z,3.15
2022-10-22T02:32:27.297Z,3.72
2022-10-22T02:37:30.227Z,3.58
2022-10-22T02:42:33.147Z,3.70
2022-10-22T02:47:37.174Z,4.53
2022-10-22T02:52:40.608Z,3.30
2022-10-22T02:57:43.676Z,3.35
2022-10-22T03:02:47.867Z,3.25
2022-10-22T03:07:50.592Z,3.47
2022-10-22T03:12:53.285Z,3.55
2022-10-22T03:17:57.312Z,3.40
2022-10-22T03:23:00.140Z,3.20
2022-10-22T03:28:05.132Z,4.15
2022-10-22T03:33:09.157Z,5.10
2022-10-22T03:38:11.990Z,2.90
2022-10-22T03:43:14.875Z,6.05
2022-10-22T03:48:18.927Z,3.10
2022-10-22T03:53:21.660Z,3.17
2022-10-22T03:58:24.362Z,6.93
2022-10-22T04:03:28.376Z,4.38
2022-10-22T04:08:31.100Z,3.40
2022-10-22T04:13:33.902Z,4.10
2022-10-22T04:18:38.444Z,3.33
2022-10-22T04:23:45.819Z,3.50
2022-10-22T04:28:49.544Z,5.97
2022-10-22T04:33:55.513Z,4.70
2022-10-22T04:39:00.460Z,3.47
2022-10-22T04:44:03.830Z,4.45
2022-10-22T04:49:07.986Z,2.58
2022-10-22T04:54:10.644Z,3.78
2022-10-22T04:59:13.794Z,2.65
2022-10-22T05:04:19.629Z,4.85
2022-10-22T05:09:22.598Z,3.88
2022-10-22T05:14:26.122Z,4.63
2022-10-22T05:19:33.289Z,2.90
2022-10-22T05:24:37.083Z,2.70
2022-10-22T05:29:39.765Z,3.03
2022-10-22T05:34:43.751Z,4.13
2022-10-22T05:39:46.395Z,3.75
2022-10-22T05:44:49.523Z,3.53
2022-10-22T05:49:53.548Z,3.50
2022-10-22T05:54:56.301Z,3.45
2022-10-22T05:59:59.030Z,4.35
2022-10-22T06:05:03.055Z,2.95
2022-10-22T06:10:07.406Z,4.63
2022-10-22T06:15:15.590Z,3.25
2022-10-22T06:20:19.980Z,3.13
2022-10-22T06:25:22.637Z,3.85
2022-10-22T06:30:25.302Z,3.38
2022-10-22T06:35:29.336Z,3.15
2022-10-22T06:40:32.111Z,3.90
2022-10-22T06:45:34.816Z,3.55
2022-10-22T06:50:38.934Z,3.22
2022-10-22T06:55:41.697Z,2.80
2022-10-22T07:00:44.396Z,3.15
2022-10-22T07:05:48.413Z,3.35
2022-10-22T07:10:51.049Z,3.53
2022-10-22T07:15:54.919Z,4.13
2022-10-22T07:20:59.614Z,3.17
2022-10-22T07:26:03.117Z,4.15
2022-10-22T07:31:05.888Z,2.95
2022-10-22T07:36:17.178Z,3.13
2022-10-22T07:41:19.871Z,3.45
2022-10-22T07:46:22.604Z,2.63
2022-10-22T07:51:27.081Z,3.95
2022-10-22T07:56:29.799Z,2.40
2022-10-22T08:01:32.564Z,3.88
2022-10-22T08:06:37.051Z,3.17
2022-10-22T08:11:39.829Z,2.70
2022-10-22T08:16:42.508Z,2.83
2022-10-22T08:21:46.853Z,2.63
2022-10-22T08:26:49.837Z,3.53
2022-10-22T08:31:52.494Z,4.13
2022-10-22T08:36:56.597Z,2.55
2022-10-22T08:42:05.790Z,2.58
2022-10-22T08:47:22.658Z,3.22
2022-10-22T08:52:27.303Z,3.60
2022-10-22T08:57:40.432Z,3.72
2022-10-22T09:02:50.982Z,3.20
2022-10-22T09:07:56.267Z,2.70
2022-10-22T09:12:58.963Z,3.08
2022-10-22T09:18:11.669Z,3.08
2022-10-22T09:23:26.403Z,6.10
2022-10-22T09:28:29.079Z,3.05
2022-10-22T09:33:32.835Z,2.88
2022-10-22T09:38:43.485Z,3.63
2022-10-22T09:43:48.039Z,3.35
2022-10-22T09:48:53.340Z,3.40
2022-10-22T09:53:59.304Z,3.05
2022-10-22T09:59:02.251Z,2.80
2022-10-22T10:04:09.691Z,2.72
2022-10-22T10:09:18.628Z,4.20
2022-10-22T10:14:23.866Z,2.83
2022-10-22T10:19:40.654Z,2.90
2022-10-22T10:25:01.799Z,4.28
2022-10-22T10:30:07.363Z,5.82
2022-10-22T10:35:21.527Z,5.15
2022-10-22T10:40:46.415Z,6.53
2022-10-22T10:45:58.703Z,4.43
2022-10-22T10:51:07.965Z,6.32
2022-10-22T10:56:21.087Z,6.43
2022-10-22T11:01:31.179Z,4.45
2022-10-22T11:06:34.784Z,3.47
2022-10-22T11:11:41.961Z,8.43
2022-10-22T11:16:47.873Z,5.63
2022-10-22T11:21:53.417Z,7.28
2022-10-22T11:27:04.191Z,7.10
2022-10-22T11:32:08.036Z,4.47
2022-10-22T11:37:12.879Z,5.40
2022-10-22T11:42:21.355Z,3.03
2022-10-22T11:47:26.923Z,3.35
2022-10-22T11:52:41.652Z,3.55
2022-10-22T11:57:45.913Z,7.55
2022-10-22T12:03:03.677Z,3.08
2022-10-22T12:08:23.317Z,3.45
2022-10-22T12:13:29.261Z,4.82
2022-10-22T12:18:36.701Z,4.82
2022-10-22T12:23:39.484Z,3.85
2022-10-22T12:28:43.645Z,3.20
2022-10-22T12:33:46.399Z,3.88
2022-10-22T12:38:49.245Z,2.85
2022-10-22T12:44:00.085Z,2.53
2022-10-22T12:49:04.521Z,2.35
2022-10-22T12:54:09.832Z,3.33
2022-10-22T12:59:18.445Z,2.88
2022-10-22T13:04:33.323Z,3.05
2022-10-22T13:09:39.364Z,2.75
2022-10-22T13:14:44.531Z,3.85
2022-10-22T13:19:50.047Z,3.40
2022-10-22T13:24:52.885Z,5.47
2022-10-22T13:29:57.826Z,2.80
2022-10-22T13:35:01.326Z,4.28
2022-10-22T13:40:12.412Z,3.60
2022-10-22T13:45:16.802Z,3.00
2022-10-22T13:50:21.085Z,4.32
2022-10-22T13:55:25.966Z,3.13
2022-10-22T14:00:30.271Z,3.10
2022-10-22T14:05:33.464Z,3.65
2022-10-22T14:10:36.203Z,3.00
2022-10-22T14:15:41.011Z,3.88
2022-10-22T14:20:43.962Z,3.90
2022-10-22T14:25:46.856Z,4.25
2022-10-22T14:30:51.350Z,3.42
2022-10-22T14:35:54.420Z,3.45
2022-10-22T14:40:57.644Z,6.05
2022-10-22T14:46:01.744Z,4.47
2022-10-22T14:51:05.415Z,5.32
2022-10-22T14:56:08.291Z,5.50
2022-10-22T15:01:12.316Z,5.43
2022-10-22T15:06:15.101Z,4.80
2022-10-22T15:11:18.068Z,6.75
2022-10-22T15:16:22.167Z,3.40
2022-10-22T15:21:24.895Z,5.00
2022-10-22T15:26:27.834Z,5.65
2022-10-22T15:31:46.809Z,6.25
2022-10-22T15:36:49.531Z,7.40
2022-10-22T15:41:52.642Z,4.90
2022-10-22T15:46:57.158Z,4.88
2022-10-22T15:51:59.894Z,4.47
2022-10-22T15:57:05.737Z,10.20
2022-10-22T16:02:11.011Z,9.90
2022-10-22T16:07:13.762Z,8.43
2022-10-22T16:12:17.316Z,7.13
2022-10-22T16:17:21.467Z,10.23
2022-10-22T16:22:24.151Z,7.95
2022-10-22T16:27:26.875Z,7.85
2022-10-22T16:32:30.891Z,6.28
2022-10-22T16:37:33.619Z,6.95
2022-10-22T16:42:36.247Z,9.88
2022-10-22T16:47:42.815Z,9.13
2022-10-22T16:52:45.653Z,8.63
2022-10-22T16:57:51.559Z,8.55
2022-10-22T17:02:55.645Z,7.13
2022-10-22T17:07:58.375Z,8.15
2022-10-22T17:13:01.016Z,8.73
2022-10-22T17:18:05.329Z,8.52
2022-10-22T17:23:08.112Z,6.30
2022-10-22T17:28:10.976Z,8.18
2022-10-22T17:33:15.168Z,9.90
2022-10-22T17:38:17.842Z,8.05
2022-10-22T17:43:20.602Z,5.88
2022-10-22T17:48:24.629Z,4.95
2022-10-22T17:53:27.563Z,7.03
2022-10-22T17:58:31.001Z,5.70
2022-10-22T18:03:35.140Z,6.38
2022-10-22T18:08:37.954Z,7.05
2022-10-22T18:13:40.791Z,6.18
2022-10-22T18:18:46.973Z,6.13
2022-10-22T18:23:49.628Z,6.43
2022-10-22T18:28:52.423Z,7.38
2022-10-22T18:33:57.967Z,10.25
2022-10-22T18:39:01.875Z,8.88
2022-10-22T18:44:05.900Z,11.15
2022-10-22T18:49:11.634Z,9.38
2022-10-22T18:54:29.154Z,11.13
2022-10-22T18:59:32.313Z,12.23
2022-10-22T19:11:07.466Z,10.73
2022-10-22T19:16:14.025Z,10.10
2022-10-22T19:21:16.658Z,12.27
2022-10-22T19:26:21.377Z,12.15
2022-10-22T19:31:26.783Z,10.13
2022-10-22T19:36:30.442Z,9.80
2022-10-22T19:41:33.557Z,9.80
2022-10-22T19:46:37.548Z,8.73
2022-10-22T19:51:40.173Z,7.15
2022-10-22T19:56:42.742Z,9.45
2022-10-22T20:01:46.762Z,7.55
2022-10-22T20:06:49.398Z,11.48
2022-10-22T20:11:52.000Z,8.85
2022-10-22T20:16:56.018Z,10.40
2022-10-22T20:27:02.307Z,12.35
2022-10-22T20:32:08.732Z,7.30
2022-10-22T20:37:11.586Z,12.02
2022-10-22T20:42:15.335Z,15.43
2022-10-22T20:47:19.285Z,16.10
2022-10-22T20:52:21.905Z,18.85
2022-10-22T20:57:24.653Z,16.30
2022-10-22T21:02:29.069Z,17.45
2022-10-22T21:07:31.705Z,17.00
2022-10-22T21:12:34.338Z,17.80
2022-10-22T21:17:38.276Z,20.40
2022-10-22T21:22:41.306Z,17.40
2022-10-22T21:27:44.193Z,18.05
2022-10-22T21:32:48.141Z,18.80
2022-10-22T21:37:50.734Z,22.02
2022-10-22T21:42:53.359Z,14.82
2022-10-22T21:47:57.785Z,21.13
2022-10-22T21:53:00.421Z,17.70
2022-10-22T21:58:03.049Z,15.57
2022-10-22T22:03:08.777Z,12.27
2022-10-22T22:08:11.375Z,18.52
2022-10-22T22:13:13.969Z,12.65
2022-10-22T22:18:17.983Z,14.93
2022-10-22T22:23:20.651Z,10.68
2022-10-22T22:28:23.213Z,14.02
2022-10-22T22:33:27.152Z,12.93
2022-10-22T22:38:29.743Z,12.45
2022-10-22T22:43:32.401Z,14.23
2022-10-22T22:48:36.458Z,8.40
2022-10-22T22:53:39.351Z,9.38
2022-10-22T22:58:42.661Z,13.27
2022-10-22T23:03:47.893Z,13.50
2022-10-22T23:08:51.903Z,7.75
2022-10-22T23:13:56.355Z,9.65
2022-10-22T23:19:01.078Z,9.75
2022-10-22T23:24:06.111Z,8.07
2022-10-22T23:29:11.608Z,11.32
2022-10-22T23:39:28.817Z,10.43
2022-10-22T23:44:31.467Z,8.73
2022-10-22T23:49:35.526Z,8.65
2022-10-22T23:54:38.160Z,8.43
2022-10-22T23:59:40.792Z,7.38
